Time;durP1;ratioP1;P1;durP2;ratioP2;P2;SDS_P1;SDS_P2;PMS_P1;PMS_P2;Temp;Humidity;BMP_temperature;BMP_pressure;BME280_temperature;BME280_humidity;BME280_pressure;Samples;Min_cycle;Max_cycle;Signal;HPM_P1;HPM_P2
2022/11/01 09:01:08;;;;;;;13.75;9.55;;;;;;;15.05;82.12;100123.13;1082914;54;20090;-86
2022/11/01 09:05:23;;;;;;;11.82;9.15;;;;;;;15.17;81.80;100118.19;1088778;54;20137;-85
2022/11/01 09:09:39;;;;;;;11.95;7.82;;;;;;;15.30;81.53;100129.28;1089659;39;20449;-87
2022/11/01 09:12:08;;;;;;;10.07;7.43;;;;;;;15.40;80.86;100127.19;1087836;54;20073;-87
2022/11/01 09:13:12;;;;;;;9.75;7.68;;;;;;;15.47;81.15;100118.44;1089429;46;20064;-85
2022/11/01 09:14:16;;;;;;;10.60;8.23;;;;;;;15.44;81.38;100128.53;1088701;46;20037;-85
2022/11/01 09:15:37;;;;;;;11.63;8.52;;;;;;;15.46;80.95;100133.75;1087721;54;20022;-87
2022/11/01 09:16:44;;;;;;;9.48;8.13;;;;;;;15.57;81.21;100132.53;1093466;39;20260;-87
2022/11/01 09:23:41;;;;;;;12.30;10.15;;;;;;;15.72;80.90;100133.47;1082544;39;21406;31
2022/11/01 09:24:43;;;;;;;11.75;8.43;;;;;;;15.82;80.79;100132.41;1088060;54;20056;-84
2022/11/01 09:25:47;;;;;;;10.77;8.18;;;;;;;15.92;80.79;100134.91;1087990;54;20034;-84
2022/11/01 09:27:58;;;;;;;12.30;8.88;;;;;;;16.05;80.16;100138.72;1088023;54;20033;-86
2022/11/01 09:29:16;;;;;;;12.20;9.18;;;;;;;16.04;80.61;100141.56;1087769;54;20057;-82
2022/11/01 09:36:41;;;;;;;12.48;9.05;;;;;;;16.52;79.15;100155.72;1087378;54;20045;-84
2022/11/01 09:37:43;;;;;;;11.50;8.85;;;;;;;16.62;79.36;100146.53;1087628;39;21284;-86
2022/11/01 09:39:05;;;;;;;10.02;8.35;;;;;;;16.76;78.59;100150.28;1088255;46;20056;-83
2022/11/01 09:40:47;;;;;;;10.75;7.97;;;;;;;16.76;78.45;100144.88;1087664;46;20035;-83
2022/11/01 09:41:54;;;;;;;13.18;8.43;;;;;;;16.88;78.54;100146.13;1087185;54;20038;-78
2022/11/01 09:42:59;;;;;;;11.13;8.10;;;;;;;16.99;78.61;100148.41;1087267;54;20058;-82
2022/11/01 09:44:39;;;;;;;9.57;7.28;;;;;;;17.09;77.70;100142.75;1087397;54;20057;-84
2022/11/01 09:47:21;;;;;;;12.50;7.82;;;;;;;17.14;77.36;100148.41;1087331;54;20038;-83
2022/11/01 09:48:24;;;;;;;8.80;7.18;;;;;;;17.25;77.98;100152.53;1088057;46;20055;-80
2022/11/01 09:49:33;;;;;;;9.02;6.45;;;;;;;17.30;77.46;100144.69;1087540;54;20030;-81
2022/11/01 09:50:42;;;;;;;9.75;7.03;;;;;;;17.36;77.00;100156.63;1087430;54;20059;-81
2022/11/01 09:51:49;;;;;;;7.75;6.00;;;;;;;17.45;76.95;100146.56;1087580;54;20030;-84
2022/11/01 09:52:53;;;;;;;11.82;6.80;;;;;;;17.43;77.18;100151.31;1087653;54;20037;-85
2022/11/01 09:54:03;;;;;;;9.48;6.85;;;;;;;17.59;76.36;100156.50;1087645;47;20030;-84
2022/11/01 09:55:17;;;;;;;9.90;6.57;;;;;;;17.67;76.12;100157.41;1087582;54;20061;-86
2022/11/01 09:56:23;;;;;;;8.70;6.60;;;;;;;17.77;75.84;100155.25;1087474;54;20026;-81
2022/11/01 09:57:36;;;;;;;8.80;6.20;;;;;;;17.89;75.28;100151.06;1089125;46;20030;-84
2022/11/01 09:58:49;;;;;;;7.35;5.00;;;;;;;18.03;74.43;100149.38;1087631;54;20030;-85
2022/11/01 10:00:06;;;;;;;9.63;4.93;;;;;;;18.12;73.67;100147.38;1087377;54;20026;-83
2022/11/01 10:01:20;;;;;;;9.40;5.00;;;;;;;18.22;73.34;100147.91;1087927;54;20038;-84
2022/11/01 10:02:47;;;;;;;8.60;4.93;;;;;;;18.13;71.91;100151.78;1087361;54;20038;-79
2022/11/01 10:04:05;;;;;;;8.90;4.57;;;;;;;18.21;72.21;100148.94;1088578;46;20039;-81
2022/11/01 10:05:24;;;;;;;6.72;4.05;;;;;;;18.33;72.08;100151.97;1087540;54;20766;-82
2022/11/01 10:06:41;;;;;;;7.90;3.65;;;;;;;18.46;70.97;100151.25;1091451;31;20804;-84
2022/11/01 10:09:32;;;;;;;8.23;4.20;;;;;;;18.08;71.14;100151.50;1087078;54;20094;-84
2022/11/01 10:10:41;;;;;;;7.60;4.03;;;;;;;17.95;71.79;100171.09;1087538;54;20054;-82
2022/11/01 10:12:00;;;;;;;6.97;4.40;;;;;;;17.79;68.81;100161.31;1087687;54;20038;-84
2022/11/01 10:13:31;;;;;;;7.68;3.83;;;;;;;17.85;69.10;100163.28;1087624;54;20030;-80
2022/11/01 10:15:01;;;;;;;5.82;3.00;;;;;;;17.76;67.15;100161.69;1087557;54;21516;-83
2022/11/01 10:18:28;;;;;;;5.32;2.13;;;;;;;18.01;66.07;100164.13;1087475;54;20741;-86
2022/11/01 10:19:53;;;;;;;6.47;1.67;;;;;;;17.88;65.16;100164.78;1087433;54;20023;-83
2022/11/01 10:21:51;;;;;;;;;;;;;;;;;;;;;
2022/11/01 10:24:06;;;;;;;4.30;1.40;;;;;;;17.99;65.24;100171.56;1087101;54;20048;-80
2022/11/01 10:25:22;;;;;;;4.50;1.20;;;;;;;18.02;65.70;100179.31;1087283;54;20041;-78
2022/11/01 10:26:27;;;;;;;4.50;1.45;;;;;;;18.07;65.97;100171.44;1088400;46;20035;-84
2022/11/01 10:27:48;;;;;;;6.97;1.88;;;;;;;17.98;65.21;100168.03;1087429;47;20046;-84
2022/11/01 10:29:07;;;;;;;3.95;1.35;;;;;;;17.99;65.11;100164.31;1087253;54;20071;-85
2022/11/01 10:31:38;;;;;;;5.60;1.77;;;;;;;18.08;65.10;100170.44;1086603;54;20065;-84
2022/11/01 10:33:17;;;;;;;6.18;1.50;;;;;;;17.96;64.39;100171.91;1087122;54;20042;-81
2022/11/01 10:45:38;;;;;;;5.05;1.45;;;;;;;18.19;63.53;100171.78;1089096;39;21101;-81
2022/11/01 10:46:45;;;;;;;6.00;1.50;;;;;;;18.19;63.50;100175.34;1086992;54;20046;-81
2022/11/01 10:47:51;;;;;;;4.90;1.63;;;;;;;18.22;63.34;100177.69;1086866;54;20034;-81
2022/11/01 10:48:59;;;;;;;4.20;1.60;;;;;;;18.07;63.85;100174.16;1087295;54;20041;-80
2022/11/01 10:50:06;;;;;;;3.35;1.23;;;;;;;18.15;63.85;100175.91;1087173;54;20061;-80
2022/11/01 10:51:10;;;;;;;4.70;1.17;;;;;;;18.34;63.64;100182.56;1088433;39;21084;-81
2022/11/01 10:52:19;;;;;;;4.82;1.90;;;;;;;18.17;63.74;100192.81;1087041;54;20034;-79
2022/11/01 10:53:21;;;;;;;4.20;1.50;;;;;;;18.21;64.22;100184.13;1086885;54;20061;-80
2022/11/01 10:54:30;;;;;;;3.85;1.50;;;;;;;18.23;64.08;100168.50;1087353;54;20034;-85
2022/11/01 10:55:38;;;;;;;5.45;1.52;;;;;;;18.03;64.32;100178.28;1087850;54;20030;-78
2022/11/01 10:56:47;;;;;;;5.80;1.50;;;;;;;18.17;64.24;100180.09;1087672;54;20072;-79
2022/11/01 10:57:57;;;;;;;6.53;1.80;;;;;;;18.12;64.45;100179.00;1087716;54;20035;-81
2022/11/01 10:59:01;;;;;;;;;;;;;;;17.90;64.98;100181.66;1088905;46;20050;-82
2022/11/01 11:00:10;;;;;;;3.55;1.00;;;;;;;18.10;64.60;100181.91;1087340;54;19930;-78
2022/11/01 11:01:19;;;;;;;4.38;1.63;;;;;;;18.06;64.66;100184.16;1087534;54;20082;-83
2022/11/01 11:02:28;;;;;;;4.15;1.30;;;;;;;18.09;64.97;100174.81;1087589;54;20030;-82
2022/11/01 11:03:30;;;;;;;5.72;1.75;;;;;;;18.16;64.62;100178.41;1087628;54;20046;-83
2022/11/01 11:04:35;;;;;;;4.90;1.63;;;;;;;18.32;64.57;100171.94;1089496;39;20969;-85
2022/11/01 11:05:37;;;;;;;3.42;1.38;;;;;;;18.18;65.09;100170.97;1087523;54;20035;-83
2022/11/01 11:06:44;;;;;;;6.82;1.45;;;;;;;17.95;65.68;100171.09;1087440;54;20031;-85
2022/11/01 11:07:46;;;;;;;6.32;1.42;;;;;;;17.89;66.00;100179.97;1087477;54;20058;-84
2022/11/01 11:08:53;;;;;;;6.40;1.85;;;;;;;17.82;66.28;100177.19;1087461;54;20030;-81
2022/11/01 11:09:55;;;;;;;6.20;1.58;;;;;;;17.64;66.79;100174.88;1087441;54;20041;-80
2022/11/01 11:11:07;;;;;;;4.60;1.60;;;;;;;17.60;67.05;100185.22;1087379;54;20034;-82
2022/11/01 11:12:14;;;;;;;5.90;1.65;;;;;;;17.65;66.77;100181.94;1087418;54;20055;-84
2022/11/01 11:13:22;;;;;;;5.63;1.33;;;;;;;17.76;66.50;100175.22;1087448;54;20130;-81
2022/11/01 11:14:27;;;;;;;5.22;2.00;;;;;;;17.74;66.69;100180.00;1087405;54;20799;-83
2022/11/01 11:15:45;;;;;;;5.05;1.80;;;;;;;17.81;66.48;100182.75;1087538;54;20026;-83
2022/11/01 11:16:55;;;;;;;5.78;1.70;;;;;;;17.67;66.62;100189.84;1087524;54;20035;-83
2022/11/01 11:18:01;;;;;;;7.13;1.73;;;;;;;17.60;66.40;100185.22;1087527;54;20057;-84
2022/11/01 11:19:18;;;;;;;5.10;1.75;;;;;;;17.43;66.28;100179.16;1087506;47;20042;-83
2022/11/01 11:20:23;;;;;;;7.53;2.00;;;;;;;17.28;66.37;100192.69;1087442;54;20030;-85
2022/11/01 11:21:27;;;;;;;5.75;1.73;;;;;;;17.27;66.38;100196.41;1087382;54;20030;-82
2022/11/01 11:22:32;;;;;;;5.47;1.60;;;;;;;17.37;66.02;100201.53;1087507;54;20034;-85
2022/11/01 11:23:40;;;;;;;6.63;1.65;;;;;;;17.43;65.56;100197.25;1087482;54;20038;-85
2022/11/01 11:24:46;;;;;;;10.05;1.73;;;;;;;17.44;65.82;100202.47;1087357;54;20720;-83
2022/11/01 11:25:49;;;;;;;6.03;1.52;;;;;;;17.31;65.50;100208.50;1087367;54;20035;-83
2022/11/01 11:26:57;;;;;;;6.40;1.55;;;;;;;17.19;65.92;100199.19;1087410;54;20035;-85
2022/11/01 11:27:59;;;;;;;4.90;1.73;;;;;;;17.14;65.93;100201.59;1087514;54;20042;-84
2022/11/01 11:32:57;;;;;;;5.63;1.90;;;;;;;17.17;65.71;100208.50;1087391;54;20053;-80
2022/11/01 11:34:08;;;;;;;6.40;2.00;;;;;;;17.00;65.32;100200.56;1087374;54;20038;-83
2022/11/01 11:35:16;;;;;;;5.97;2.10;;;;;;;16.94;65.43;100206.69;1087413;54;20038;-82
2022/11/01 11:36:29;;;;;;;9.60;2.00;;;;;;;16.84;65.48;100206.91;1087399;54;20030;-84
2022/11/01 11:37:35;;;;;;;5.68;1.73;;;;;;;16.80;65.81;100205.59;1087458;54;20045;-82
2022/11/01 11:38:45;;;;;;;5.93;1.90;;;;;;;16.75;65.49;100203.44;1087445;54;20057;-81
2022/11/01 11:40:07;;;;;;;6.38;2.00;;;;;;;16.82;65.35;100203.53;1087393;54;20058;-82
2022/11/01 11:41:27;;;;;;;5.95;1.52;;;;;;;17.05;65.31;100208.94;1087410;54;20057;-80
2022/11/01 11:42:40;;;;;;;5.82;1.83;;;;;;;16.89;65.38;100201.81;1086936;54;20038;-80
2022/11/01 11:56:43;;;;;;;5.90;1.50;;;;;;;17.31;64.38;100210.38;1087186;54;20034;-83
2022/11/01 11:57:54;;;;;;;5.80;1.77;;;;;;;17.43;64.28;100205.34;1087422;54;20073;-82
2022/11/01 11:59:00;;;;;;;5.90;1.90;;;;;;;17.46;64.10;100215.81;1087344;54;20054;-83
2022/11/01 12:00:05;;;;;;;4.05;1.50;;;;;;;17.41;64.41;100213.66;1087147;54;20063;-83
2022/11/01 12:01:12;;;;;;;4.53;1.63;;;;;;;17.51;64.51;100207.13;1087157;54;20034;-82
2022/11/01 12:02:21;;;;;;;4.53;2.17;;;;;;;17.63;64.13;100202.91;1087976;47;20057;-81
2022/11/01 12:03:23;;;;;;;5.25;1.80;;;;;;;17.66;64.10;100202.56;1087215;54;20098;-82
2022/11/01 12:04:32;;;;;;;7.05;1.95;;;;;;;17.68;63.96;100210.47;1087135;54;20055;-83
2022/11/01 12:05:34;;;;;;;6.05;2.40;;;;;;;17.65;64.27;100208.16;1087170;54;20035;-81
2022/11/01 12:06:42;;;;;;;8.55;2.22;;;;;;;17.65;63.97;100208.16;1087013;54;20742;-83
2022/11/01 12:07:46;;;;;;;5.38;2.00;;;;;;;17.54;64.15;100207.59;1087192;54;20046;-82
2022/11/01 12:08:52;;;;;;;6.85;2.05;;;;;;;17.39;64.70;100214.84;1087223;54;20031;-83
2022/11/01 12:09:55;;;;;;;5.55;2.25;;;;;;;17.37;64.45;100222.31;1087088;54;20713;-82
2022/11/01 12:11:00;;;;;;;6.72;2.00;;;;;;;17.49;64.26;100210.00;1087515;47;20040;-82
2022/11/01 12:12:17;;;;;;;6.28;1.38;;;;;;;17.67;63.67;100219.59;1087288;54;20035;-83
2022/11/01 12:13:28;;;;;;;7.03;2.20;;;;;;;17.55;63.34;100221.94;1087261;54;20035;-83
2022/11/01 12:14:38;;;;;;;7.55;1.88;;;;;;;17.67;63.71;100219.59;1087161;54;20030;-82
2022/11/01 12:15:42;;;;;;;4.65;2.03;;;;;;;17.80;63.44;100229.78;1087576;47;20019;-83
2022/11/01 12:16:44;;;;;;;4.63;1.45;;;;;;;17.51;63.37;100223.34;1087063;54;20057;-82
2022/11/01 12:17:48;;;;;;;5.70;1.75;;;;;;;17.63;63.66;100211.03;1087159;54;20034;-81
2022/11/01 12:18:52;;;;;;;6.13;1.98;;;;;;;17.73;63.12;100218.88;1087027;54;20065;-80
2022/11/01 12:20:18;;;;;;;7.13;2.15;;;;;;;17.52;62.86;100231.25;1086998;54;20035;-82
2022/11/01 12:21:24;;;;;;;6.30;1.88;;;;;;;17.63;63.20;100219.13;1086577;54;20038;-82
2022/11/01 12:22:33;;;;;;;4.95;1.75;;;;;;;17.60;63.21;100217.66;1086804;54;20121;-82
2022/11/01 12:23:38;;;;;;;6.25;1.90;;;;;;;17.62;62.74;100212.03;1086997;54;20052;-85
2022/11/01 12:24:47;;;;;;;5.15;1.80;;;;;;;17.56;62.68;100216.38;1088408;47;20035;-82
2022/11/01 12:25:52;;;;;;;5.82;1.60;;;;;;;17.64;62.99;100220.81;1087079;54;20034;-81
2022/11/01 12:27:01;;;;;;;7.47;3.00;;;;;;;17.59;62.82;100215.97;1087073;54;20061;-81
2022/11/01 12:28:14;;;;;;;5.28;1.70;;;;;;;17.75;62.29;100220.34;1087130;54;20030;-80
2022/11/01 12:29:27;;;;;;;4.50;1.40;;;;;;;17.64;62.22;100223.50;1087113;54;20038;-80
2022/11/01 12:30:35;;;;;;;5.50;2.03;;;;;;;17.75;62.52;100219.53;1087107;54;20038;-82
2022/11/01 12:31:42;;;;;;;6.50;2.08;;;;;;;17.51;62.39;100224.19;1087078;54;20034;-82
2022/11/01 12:32:51;;;;;;;5.57;2.25;;;;;;;17.46;62.92;100221.22;1087062;54;20039;-82
2022/11/01 12:33:57;;;;;;;9.45;2.50;;;;;;;17.51;63.13;100221.47;1087106;54;20035;-81
2022/11/01 12:35:05;;;;;;;10.15;2.33;;;;;;;17.44;62.76;100229.47;1087150;54;20030;-83
2022/11/01 12:36:09;;;;;;;4.95;1.63;;;;;;;17.73;62.53;100213.47;1086949;54;20042;-81
2022/11/01 12:37:19;;;;;;;6.82;2.08;;;;;;;17.75;62.36;100214.94;1087073;54;20030;-81
2022/11/01 12:38:40;;;;;;;7.88;1.88;;;;;;;17.74;61.84;100215.13;1087099;54;20035;-80
2022/11/01 12:39:52;;;;;;;5.60;1.60;;;;;;;17.55;62.77;100219.22;1087103;54;20065;-81
2022/11/01 12:40:54;;;;;;;8.98;1.80;;;;;;;17.45;62.91;100214.94;1087082;54;20034;-80
2022/11/01 12:42:02;;;;;;;8.15;1.90;;;;;;;17.38;63.00;100218.59;1087262;54;20079;-80
2022/11/01 12:43:14;;;;;;;5.75;1.67;;;;;;;17.46;62.56;100205.81;1087192;54;20027;-84
2022/11/01 12:44:33;;;;;;;6.55;1.83;;;;;;;17.41;62.88;100218.19;1087124;54;20034;-79
2022/11/01 12:45:51;;;;;;;5.72;1.52;;;;;;;17.44;62.90;100217.84;1087197;54;20041;-79
2022/11/01 12:46:58;;;;;;;6.03;1.70;;;;;;;17.52;62.45;100209.63;1087434;47;21177;-80
2022/11/01 12:48:08;;;;;;;7.22;2.30;;;;;;;17.50;62.98;100222.50;1087148;54;20035;-81
2022/11/01 12:49:16;;;;;;;5.13;1.60;;;;;;;17.70;62.46;100211.97;1087078;54;20030;-82
2022/11/01 12:50:25;;;;;;;7.15;1.60;;;;;;;17.52;62.76;100215.03;1087098;54;20034;-79
2022/11/01 12:51:29;;;;;;;6.00;1.90;;;;;;;17.46;63.14;100218.50;1087014;54;20040;-81
2022/11/01 12:52:39;;;;;;;6.75;1.85;;;;;;;17.68;62.02;100213.16;1087081;54;20057;-81
2022/11/01 12:53:45;;;;;;;7.07;1.77;;;;;;;17.45;62.72;100219.53;1087092;54;20035;-82
2022/11/01 12:54:59;;;;;;;6.28;1.58;;;;;;;17.43;62.77;100216.16;1088537;39;21211;-81
2022/11/01 12:56:03;;;;;;;9.05;2.00;;;;;;;17.61;62.56;100208.53;1086893;54;20042;-80
2022/11/01 12:57:15;;;;;;;6.85;1.70;;;;;;;17.65;62.24;100206.28;1088810;47;20038;-80
2022/11/01 12:58:25;;;;;;;5.13;1.73;;;;;;;17.49;62.27;100209.19;1087425;54;20045;-81
2022/11/01 12:59:35;;;;;;;7.22;2.05;;;;;;;17.51;62.25;100215.25;1087486;54;20094;-80
2022/11/01 13:00:53;;;;;;;4.70;1.50;;;;;;;17.67;61.75;100212.34;1087436;54;20038;-81
2022/11/01 13:02:11;;;;;;;4.32;1.63;;;;;;;17.72;61.49;100215.31;1087414;54;20014;-80
2022/11/01 13:03:28;;;;;;;4.97;1.50;;;;;;;17.69;61.03;100214.84;1087370;54;20830;-81
2022/11/01 13:04:35;;;;;;;4.57;1.83;;;;;;;17.50;61.76;100221.66;1088149;31;21154;-81
2022/11/01 13:05:52;;;;;;;6.05;2.22;;;;;;;17.52;61.57;100215.03;1087410;54;20042;-81
2022/11/01 13:07:27;;;;;;;9.48;2.30;;;;;;;17.53;61.65;100214.03;1087344;54;20038;-80
2022/11/01 13:08:37;;;;;;;7.38;1.95;;;;;;;17.75;61.10;100214.94;1087125;54;20030;-79
2022/11/01 13:09:51;;;;;;;4.67;1.60;;;;;;;17.89;61.02;100209.72;1087431;54;20026;-80
2022/11/01 13:10:59;;;;;;;5.45;1.70;;;;;;;17.96;60.81;100209.78;1087462;54;20037;-81
2022/11/01 13:12:08;;;;;;;8.77;2.38;;;;;;;17.65;60.86;100214.38;1087445;54;20039;-81
2022/11/01 13:13:22;;;;;;;5.30;2.00;;;;;;;17.75;60.92;100208.72;1087744;46;20022;-80
2022/11/01 13:14:38;;;;;;;7.00;2.00;;;;;;;17.60;61.04;100214.94;1087448;54;20046;-80
2022/11/01 13:15:53;;;;;;;8.02;2.75;;;;;;;17.66;61.31;100209.84;1087421;54;20031;-80
2022/11/01 13:17:04;;;;;;;7.45;2.42;;;;;;;17.81;60.83;100213.34;1087377;54;20057;-82
2022/11/01 13:18:16;;;;;;;5.97;2.10;;;;;;;17.85;60.53;100208.41;1087194;54;20030;-80
2022/11/01 13:19:25;;;;;;;7.40;1.85;;;;;;;17.86;60.48;100210.09;1087379;54;20058;-80
2022/11/01 13:20:46;;;;;;;6.78;1.95;;;;;;;17.74;60.27;100215.13;1087333;54;20432;-79
2022/11/01 13:21:55;;;;;;;6.07;1.90;;;;;;;17.98;60.55;100208.63;1087287;54;20038;-83
2022/11/01 13:23:05;;;;;;;5.55;2.03;;;;;;;17.74;60.73;100215.13;1087381;54;20053;-81
2022/11/01 13:24:18;;;;;;;7.70;2.22;;;;;;;17.93;60.44;100211.84;1087397;54;20321;-82
2022/11/01 13:25:25;;;;;;;7.03;2.10;;;;;;;17.86;60.72;100202.78;1087339;54;20053;-81
2022/11/01 13:26:36;;;;;;;4.10;1.40;;;;;;;17.75;60.82;100212.25;1087240;54;20769;-81
2022/11/01 13:27:42;;;;;;;5.13;1.83;;;;;;;18.07;60.00;100206.63;1087443;54;20050;-81
2022/11/01 13:28:55;;;;;;;4.85;1.92;;;;;;;18.08;59.89;100201.03;1087348;54;20034;-81
2022/11/01 13:30:05;;;;;;;6.07;1.58;;;;;;;17.96;60.01;100204.38;1087406;54;20031;-80
2022/11/01 13:31:20;;;;;;;5.15;1.60;;;;;;;17.97;59.45;100206.06;1087423;54;20039;-80
2022/11/01 13:32:34;;;;;;;6.00;1.50;;;;;;;17.89;59.07;100210.53;1088655;46;20027;-79
2022/11/01 13:33:43;;;;;;;6.35;1.50;;;;;;;17.85;58.71;100198.44;1087326;54;20034;-80
2022/11/01 13:34:59;;;;;;;5.18;1.40;;;;;;;17.88;58.72;100208.88;1087355;54;20030;-80
2022/11/01 13:36:11;;;;;;;5.82;1.80;;;;;;;17.91;58.63;100203.09;1087885;46;20046;-82
2022/11/01 13:37:26;;;;;;;4.68;1.50;;;;;;;18.09;58.61;100196.44;1087298;54;20102;-81
2022/11/01 13:38:36;;;;;;;5.13;1.45;;;;;;;18.19;58.34;100199.69;1087321;54;20034;-81
2022/11/01 13:39:51;;;;;;;7.55;2.25;;;;;;;18.28;58.04;100194.97;1087348;54;20061;-80
2022/11/01 13:41:00;;;;;;;4.25;1.52;;;;;;;18.36;58.13;100183.22;1087371;54;20054;-79
2022/11/01 13:42:10;;;;;;;5.25;1.58;;;;;;;18.38;58.13;100194.69;1087333;54;20030;-79
2022/11/01 13:43:17;;;;;;;6.70;1.90;;;;;;;18.36;58.00;100188.63;1087362;54;20034;-79
2022/11/01 13:44:21;;;;;;;4.93;1.70;;;;;;;18.35;58.16;100197.75;1087305;54;20039;-80
2022/11/01 13:45:50;;;;;;;7.18;1.67;;;;;;;18.04;57.90;100190.78;1088326;39;20721;-80
2022/11/01 13:47:14;;;;;;;6.53;1.33;;;;;;;18.08;57.69;100192.06;1087298;54;20042;-80
2022/11/01 13:48:24;;;;;;;5.00;1.90;;;;;;;17.99;58.38;100185.09;1089850;39;20657;-80
2022/11/01 13:49:57;;;;;;;9.15;2.50;;;;;;;17.91;58.40;100186.00;1087365;54;20061;-81
2022/11/01 13:51:13;;;;;;;5.72;1.80;;;;;;;17.84;58.60;100185.94;1089004;46;20051;-79
2022/11/01 13:52:19;;;;;;;7.18;2.03;;;;;;;17.82;58.57;100189.84;1087339;54;20026;-83
2022/11/01 13:53:33;;;;;;;5.28;1.83;;;;;;;17.97;58.09;100187.16;1088839;39;20666;-79
2022/11/01 13:54:42;;;;;;;4.38;1.30;;;;;;;18.11;58.18;100185.44;1087985;46;20030;-79
2022/11/01 13:55:53;;;;;;;5.10;1.60;;;;;;;18.22;57.67;100188.50;1087280;54;20038;-79
2022/11/01 13:57:00;;;;;;;4.10;1.30;;;;;;;18.30;57.70;100200.22;1087278;54;20054;-80
2022/11/01 13:58:07;;;;;;;3.95;1.52;;;;;;;18.16;57.90;100197.34;1086979;54;20053;-82
2022/11/01 13:59:28;;;;;;;5.88;2.17;;;;;;;17.80;58.36;100206.25;1086933;54;20062;-81
2022/11/01 14:00:44;;;;;;;5.88;2.08;;;;;;;17.89;57.34;100209.72;1087391;54;20030;-78
2022/11/01 14:01:45;;;;;;;5.05;1.63;;;;;;;17.97;57.95;100211.50;1087382;54;20057;-80
2022/11/01 14:02:56;;;;;;;5.28;1.70;;;;;;;17.91;56.84;100202.22;1087374;54;20081;-80
2022/11/01 14:04:47;;;;;;;5.65;1.50;;;;;;;17.70;56.86;100205.72;1087303;54;20034;-80
2022/11/01 14:06:13;;;;;;;4.13;1.40;;;;;;;17.78;56.87;100202.91;1087015;54;20039;-81
2022/11/01 14:07:15;;;;;;;5.55;1.55;;;;;;;17.75;57.67;100198.72;1087406;54;20031;-81
2022/11/01 14:08:30;;;;;;;7.28;1.85;;;;;;;17.74;57.57;100196.22;1087606;46;20041;-80
2022/11/01 14:09:41;;;;;;;8.07;1.80;;;;;;;17.81;57.51;100198.97;1087525;54;20053;-80
2022/11/01 14:10:51;;;;;;;7.18;1.75;;;;;;;17.67;57.16;100196.13;1087433;54;20026;-82
2022/11/01 14:11:54;;;;;;;6.38;1.75;;;;;;;17.51;57.52;100201.72;1087237;54;20039;-81
2022/11/01 14:13:16;;;;;;;6.03;1.67;;;;;;;17.59;57.45;100197.06;1087451;54;20126;-81
2022/11/01 14:14:50;;;;;;;5.57;1.25;;;;;;;17.73;57.16;100194.53;1087408;54;20034;-82
2022/11/01 14:16:22;;;;;;;4.15;1.60;;;;;;;17.61;57.31;100186.06;1087337;54;20828;-82
2022/11/01 14:17:50;;;;;;;3.88;1.40;;;;;;;17.58;57.46;100181.84;1087321;54;20038;-81
2022/11/01 14:19:24;;;;;;;7.10;2.03;;;;;;;17.39;57.72;100179.72;1087225;54;20031;-82
2022/11/01 14:20:43;;;;;;;5.57;1.65;;;;;;;17.34;57.45;100184.84;1087263;54;20051;-81
2022/11/01 14:21:49;;;;;;;9.18;2.67;;;;;;;17.39;57.75;100185.97;1087291;54;20127;-82
2022/11/01 14:22:50;;;;;;;4.68;1.40;;;;;;;17.28;57.74;100187.28;1087357;54;20034;-82
2022/11/01 14:24:08;;;;;;;5.97;1.50;;;;;;;17.25;57.97;100193.06;1087312;54;20034;-80
2022/11/01 14:25:28;;;;;;;4.95;1.58;;;;;;;17.33;57.58;100184.03;1087345;54;20058;-81
2022/11/01 14:26:45;;;;;;;5.32;1.20;;;;;;;17.50;57.55;100190.06;1087332;54;20022;-82
2022/11/01 14:27:51;;;;;;;5.35;1.30;;;;;;;17.28;58.24;100192.69;1087276;54;20030;-80
2022/11/01 14:28:55;;;;;;;4.47;1.20;;;;;;;17.37;57.95;100185.31;1087381;54;20754;-83
2022/11/01 14:29:59;;;;;;;5.35;1.45;;;;;;;17.54;57.48;100185.13;1087242;54;20705;-83
2022/11/01 14:31:04;;;;;;;4.70;1.27;;;;;;;17.34;57.74;100196.47;1087361;54;20053;-82
2022/11/01 14:32:12;;;;;;;5.63;2.17;;;;;;;17.29;57.99;100190.81;1088285;46;20026;-82
2022/11/01 14:33:17;;;;;;;6.82;1.55;;;;;;;17.19;58.18;100193.81;1087350;54;20074;-81
2022/11/01 14:34:44;;;;;;;8.07;2.20;;;;;;;17.26;58.17;100189.31;1087306;54;20074;-82
2022/11/01 14:35:52;;;;;;;5.53;1.17;;;;;;;17.30;58.08;100195.19;1087840;46;20049;-82
2022/11/01 14:36:59;;;;;;;6.72;1.38;;;;;;;17.20;58.07;100198.16;1087336;54;20350;-83
2022/11/01 14:38:08;;;;;;;7.25;1.83;;;;;;;17.15;58.38;100203.28;1087285;54;20031;-82
2022/11/01 14:39:18;;;;;;;5.53;1.35;;;;;;;17.25;58.06;100201.16;1088601;46;20069;-82
2022/11/01 14:40:31;;;;;;;5.00;1.63;;;;;;;17.26;58.00;100200.13;1087365;54;20039;-84
2022/11/01 14:41:37;;;;;;;5.90;1.67;;;;;;;17.17;58.44;100201.25;1087270;54;20065;-81
2022/11/01 14:42:45;;;;;;;6.40;1.52;;;;;;;17.37;58.06;100204.22;1087241;54;20701;-81
2022/11/01 14:43:50;;;;;;;6.30;1.63;;;;;;;17.35;58.25;100208.97;1087304;54;20053;-81
2022/11/01 14:44:58;;;;;;;7.07;2.17;;;;;;;17.17;58.66;100206.66;1091876;39;20726;-83
2022/11/01 14:46:08;;;;;;;7.32;1.90;;;;;;;17.11;58.69;100207.34;1087432;46;20034;-82
2022/11/01 14:47:24;;;;;;;4.80;1.50;;;;;;;17.02;58.74;100208.47;1087330;54;20694;-80
2022/11/01 14:48:35;;;;;;;5.15;1.45;;;;;;;17.09;58.65;100214.84;1087865;46;20030;-81
2022/11/01 14:49:40;;;;;;;;;;;;;;;16.86;59.28;100215.66;1087481;54;20053;-81
2022/11/01 14:50:52;;;;;;;8.18;2.00;;;;;;;16.89;59.66;100214.47;1089548;39;20609;-81
2022/11/01 14:51:58;;;;;;;4.85;1.88;;;;;;;17.15;58.61;100214.91;1087277;54;20042;-81
2022/11/01 14:53:09;;;;;;;5.72;1.92;;;;;;;17.26;58.78;100218.19;1087326;54;20053;-82
2022/11/01 14:54:20;;;;;;;6.35;1.70;;;;;;;17.05;59.26;100221.59;1087359;54;20053;-81
2022/11/01 14:55:30;;;;;;;5.25;1.70;;;;;;;17.17;58.91;100222.84;1087287;54;20031;-81
2022/11/01 14:56:36;;;;;;;7.00;1.20;;;;;;;17.16;58.77;100218.47;1087283;54;20102;-82
2022/11/01 14:57:38;;;;;;;8.55;1.95;;;;;;;17.17;59.12;100222.84;1087336;54;20061;-81
2022/11/01 14:58:42;;;;;;;6.55;1.60;;;;;;;17.29;58.54;100224.06;1087315;54;20030;-80
2022/11/01 14:59:43;;;;;;;5.70;1.70;;;;;;;17.10;58.87;100221.88;1087370;54;20057;-81
2022/11/01 15:00:48;;;;;;;5.13;1.70;;;;;;;17.20;58.89;100227.03;1087259;54;20078;-81
2022/11/01 15:01:54;;;;;;;5.78;1.48;;;;;;;17.23;58.74;100222.09;1087305;54;20027;-80
2022/11/01 15:03:00;;;;;;;6.63;2.60;;;;;;;17.08;59.22;100218.56;1087316;54;20034;-82
2022/11/01 15:04:04;;;;;;;8.77;2.28;;;;;;;17.06;59.64;100224.13;1087402;54;20034;-81
2022/11/01 15:05:13;;;;;;;7.35;2.28;;;;;;;16.90;59.79;100232.34;1087114;54;20038;-82
2022/11/01 15:06:24;;;;;;;6.07;1.90;;;;;;;16.84;59.90;100229.34;1090268;46;20046;-83
